Terminal Aerodrome Forecast
Issued by NWS Kansas City/Pleasant Hill, MO

Home | Current Version | Previous Version | Text Only | Print | Product List | Glossary On
Versions: 1 2 3 4 5 6 7 8 9 10 11 12 13
000
FTUS43 KEAX 241120
TAFMCI
TAF
KMCI 241120Z 2412/2512 31014G24KT P6SM OVC008
     FM241500 32018G28KT P6SM VCSH OVC022
     FM250100 32011KT P6SM BKN025=

USA.gov is the U.S. government's official web portal to all federal, state and local government web resources and services.